Time;durP1;ratioP1;P1;durP2;ratioP2;P2;SDS_P1;SDS_P2;PMS_P1;PMS_P2;Temp;Humidity;BMP_temperature;BMP_pressure;BME280_temperature;BME280_humidity;BME280_pressure;Samples;Min_cycle;Max_cycle;Signal;HPM_P1;HPM_P2
2023/01/29 00:00:41;;;;;;;7.80;5.80;;;;;;;-0.88;77.27;101450.23;214623;1264;61367;-75
2023/01/29 00:05:35;;;;;;;7.10;5.60;;;;;;;-0.90;77.25;101442.98;214420;1264;61450;-75
2023/01/29 00:10:28;;;;;;;7.50;5.80;;;;;;;-0.90;77.08;101441.08;214948;1264;61932;-72
2023/01/29 00:15:21;;;;;;;7.90;6.30;;;;;;;-0.90;77.08;101429.02;214289;1264;61292;-75
2023/01/29 00:20:15;;;;;;;7.50;5.80;;;;;;;-0.88;77.39;101427.48;214395;1265;61397;-74
2023/01/29 00:25:10;;;;;;;7.60;5.40;;;;;;;-0.86;77.22;101421.50;214533;1262;61582;-74
2023/01/29 00:30:13;;;;;;;6.00;5.00;;;;;;;-0.84;77.56;101411.27;214580;1264;67003;-74
2023/01/29 00:35:08;;;;;;;6.50;5.20;;;;;;;-0.85;77.15;101413.07;214405;1264;61366;-75
2023/01/29 00:40:02;;;;;;;8.80;6.40;;;;;;;-0.85;77.21;101405.53;214413;1262;73060;-74
2023/01/29 00:44:58;;;;;;;7.60;5.80;;;;;;;-0.84;77.44;101404.92;214269;1264;71376;-74
2023/01/29 00:49:54;;;;;;;6.80;5.60;;;;;;;-0.86;77.13;101409.77;214545;1267;61389;-74
2023/01/29 00:54:47;;;;;;;10.60;6.40;;;;;;;-0.91;77.15;101406.83;214333;1265;65454;-75
2023/01/29 00:59:40;;;;;;;6.90;5.30;;;;;;;-0.91;77.46;101407.64;214320;1265;61490;-74
2023/01/29 01:04:33;;;;;;;10.60;7.60;;;;;;;-0.93;77.24;101399.50;214175;1267;61282;-75
2023/01/29 01:14:36;;;;;;;9.70;6.70;;;;;;;-0.92;77.19;101386.83;214245;1272;61404;-74
2023/01/29 01:19:29;;;;;;;8.40;6.50;;;;;;;-0.93;77.12;101367.35;213863;1270;66788;-74
2023/01/29 01:24:22;;;;;;;8.40;6.70;;;;;;;-0.91;77.35;101368.33;213859;1271;61421;-74
2023/01/29 01:29:15;;;;;;;5.60;4.90;;;;;;;-0.93;77.22;101364.45;213828;1270;65854;-74
2023/01/29 01:34:09;;;;;;;9.70;6.50;;;;;;;-0.97;76.73;101360.90;213830;1269;71169;-74
2023/01/29 01:39:01;;;;;;;8.00;5.10;;;;;;;-1.01;77.07;101361.13;213953;1270;61545;-74
2023/01/29 01:44:00;;;;;;;7.30;5.60;;;;;;;-1.03;76.77;101350.45;213897;1270;61312;-74
2023/01/29 01:49:01;;;;;;;6.70;5.20;;;;;;;-1.03;77.11;101352.98;213963;1264;61348;-74
2023/01/29 01:54:06;;;;;;;7.70;5.10;;;;;;;-1.04;76.81;101350.02;214575;1265;74757;-74
2023/01/29 01:58:59;;;;;;;5.50;4.60;;;;;;;-1.08;76.66;101354.80;214530;1264;73004;-74
2023/01/29 02:09:32;;;;;;;5.60;5.10;;;;;;;-1.10;76.73;101359.80;214573;1262;66796;-74
2023/01/29 02:14:25;;;;;;;7.40;6.10;;;;;;;-1.11;76.72;101360.02;214540;1264;61290;-74
2023/01/29 02:19:40;;;;;;;7.60;5.70;;;;;;;-1.11;76.80;101359.52;214522;1265;61450;-74
2023/01/29 02:25:08;;;;;;;5.80;4.00;;;;;;;-1.10;76.82;101358.73;214432;1264;73511;-74
2023/01/29 02:30:17;;;;;;;5.80;5.30;;;;;;;-1.11;76.94;101356.31;214494;1268;61384;-74
2023/01/29 02:35:29;;;;;;;7.10;4.70;;;;;;;-1.11;76.98;101363.77;214433;1264;67163;-74
2023/01/29 02:40:31;;;;;;;5.50;3.80;;;;;;;-1.12;76.65;101348.93;214463;1265;61302;-74
2023/01/29 02:45:52;;;;;;;5.80;4.70;;;;;;;-1.17;76.48;101339.40;214498;1265;73403;-74
2023/01/29 02:50:56;;;;;;;15.70;7.10;;;;;;;-1.19;76.61;101343.15;214543;1265;72751;-75
2023/01/29 02:56:06;;;;;;;9.20;7.00;;;;;;;-1.19;76.65;101332.45;214601;1265;61377;-74
2023/01/29 03:01:07;;;;;;;8.40;5.80;;;;;;;-1.20;76.46;101338.31;214428;1265;67861;-74
2023/01/29 03:06:07;;;;;;;6.40;4.90;;;;;;;-1.22;76.65;101333.73;214528;1265;61264;-74
2023/01/29 03:11:04;;;;;;;8.10;5.20;;;;;;;-1.22;76.47;101338.30;214643;1267;74516;-75
2023/01/29 03:16:17;;;;;;;7.50;6.00;;;;;;;-1.25;76.49;101334.20;214459;1268;73952;-74
2023/01/29 03:36:57;;;;;;;7.40;5.80;;;;;;;-1.25;76.54;101311.05;214535;1265;75528;-74
2023/01/29 03:42:09;;;;;;;8.30;4.90;;;;;;;-1.27;76.72;101307.72;214581;1264;70665;-74
2023/01/29 03:47:22;;;;;;;10.20;6.20;;;;;;;-1.28;76.38;101308.77;214521;1263;61229;-73
2023/01/29 03:52:21;;;;;;;13.80;9.10;;;;;;;-1.30;76.54;101314.45;214553;1264;67113;-74
2023/01/29 03:57:31;;;;;;;13.80;8.20;;;;;;;-1.28;76.56;101315.80;214496;1265;61362;-74
2023/01/29 04:02:35;;;;;;;8.70;7.20;;;;;;;-1.28;76.43;101313.75;214447;1264;72451;-74
2023/01/29 04:07:35;;;;;;;;;;;;;;;-1.28;76.58;101306.76;214538;1265;72462;-74
2023/01/29 04:12:51;;;;;;;14.00;9.70;;;;;;;-1.30;76.49;101306.61;214490;1263;61366;-74
2023/01/29 04:17:51;;;;;;;18.20;12.90;;;;;;;-1.29;76.41;101298.20;214440;1267;147888;-74
2023/01/29 04:23:26;;;;;;;12.80;8.70;;;;;;;-1.27;76.74;101300.36;214399;1264;61401;-74
2023/01/29 04:28:28;;;;;;;9.50;8.10;;;;;;;-1.26;76.68;101287.67;214449;1266;74669;-74
2023/01/29 04:33:47;;;;;;;11.40;6.70;;;;;;;-1.26;76.82;101276.50;214466;1265;71432;-74
2023/01/29 04:39:09;;;;;;;9.10;6.70;;;;;;;-1.25;76.67;101278.28;214430;1264;61389;-73
2023/01/29 04:44:27;;;;;;;6.90;5.20;;;;;;;-1.27;76.46;101274.02;214452;1267;66499;-74
2023/01/29 04:49:42;;;;;;;7.80;5.70;;;;;;;-1.28;76.62;101271.22;214511;1265;61401;-74
2023/01/29 04:54:49;;;;;;;6.60;5.10;;;;;;;-1.29;76.64;101264.98;214575;1264;76079;-74
2023/01/29 04:59:48;;;;;;;8.30;5.60;;;;;;;-1.31;76.48;101254.29;214495;1264;73301;-74
2023/01/29 05:04:44;;;;;;;8.20;5.70;;;;;;;-1.32;76.54;101251.34;214505;1265;61293;-74
2023/01/29 05:09:39;;;;;;;8.00;5.40;;;;;;;-1.34;76.64;101248.30;214504;1268;66100;-74
2023/01/29 05:14:35;;;;;;;8.70;5.60;;;;;;;-1.31;76.69;101254.80;214549;1265;61318;-74
2023/01/29 05:19:27;;;;;;;6.30;5.00;;;;;;;-1.31;76.60;101268.59;214457;1267;73092;-74
2023/01/29 05:24:25;;;;;;;7.70;5.50;;;;;;;-1.29;76.74;101265.34;214532;1264;61286;-74
2023/01/29 05:29:18;;;;;;;7.40;5.90;;;;;;;-1.29;76.68;101256.52;214557;1265;61396;-74
2023/01/29 05:34:11;;;;;;;7.90;5.80;;;;;;;-1.29;76.55;101255.12;214583;1264;61793;-74
2023/01/29 05:39:04;;;;;;;7.10;6.00;;;;;;;-1.30;76.72;101249.48;214642;1267;61320;-74
2023/01/29 05:43:57;;;;;;;10.00;6.50;;;;;;;-1.27;76.83;101238.10;214564;1267;75581;-74
2023/01/29 05:48:54;;;;;;;9.50;6.00;;;;;;;-1.27;76.39;101228.94;214489;1264;61357;-74
2023/01/29 05:53:47;;;;;;;10.10;7.00;;;;;;;-1.26;76.70;101231.86;214521;1262;61331;-74
2023/01/29 05:58:40;;;;;;;7.60;5.90;;;;;;;-1.26;76.51;101233.23;214504;1264;61284;-74
2023/01/29 06:03:33;;;;;;;7.90;6.50;;;;;;;-1.25;76.59;101236.25;214521;1264;61262;-74
2023/01/29 06:08:26;;;;;;;10.50;6.20;;;;;;;-1.24;76.50;101234.92;214482;1268;61248;-74
2023/01/29 06:13:18;;;;;;;7.50;5.80;;;;;;;-1.22;76.70;101233.02;214508;1264;62056;-74
2023/01/29 06:18:15;;;;;;;10.10;6.90;;;;;;;-1.21;76.70;101236.18;214549;1264;61268;-74
2023/01/29 06:23:08;;;;;;;8.30;6.00;;;;;;;-1.20;76.51;101241.85;214498;1266;61442;-73
2023/01/29 06:28:01;;;;;;;12.60;8.40;;;;;;;-1.18;76.61;101238.77;214440;1267;61235;-73
2023/01/29 06:33:01;;;;;;;9.50;7.00;;;;;;;-1.17;76.30;101237.48;214497;1266;73193;-73
2023/01/29 06:37:54;;;;;;;10.80;7.60;;;;;;;-1.16;76.32;101243.70;214346;1265;73614;-73
2023/01/29 06:42:50;;;;;;;10.00;6.80;;;;;;;-1.12;76.32;101240.55;214517;1264;61265;-73
2023/01/29 06:47:43;;;;;;;10.60;7.40;;;;;;;-1.08;76.18;101233.48;214522;1265;71754;-73
2023/01/29 06:52:35;;;;;;;11.70;8.40;;;;;;;-1.08;75.97;101229.92;214496;1268;61372;-72
2023/01/29 06:57:29;;;;;;;11.20;7.00;;;;;;;-1.04;75.91;101231.56;214520;1266;61275;-73
2023/01/29 07:02:22;;;;;;;11.70;7.00;;;;;;;-1.00;76.05;101240.25;214468;1267;71419;-73
2023/01/29 07:07:15;;;;;;;11.20;7.30;;;;;;;-0.96;75.95;101240.31;214480;1266;61319;-73
2023/01/29 07:12:09;;;;;;;11.30;7.30;;;;;;;-0.93;75.94;101240.89;214493;1267;61255;-73
2023/01/29 07:17:03;;;;;;;10.10;6.60;;;;;;;-0.90;75.93;101223.73;214581;1264;61277;-73
2023/01/29 07:21:56;;;;;;;13.00;7.20;;;;;;;-0.87;75.69;101216.67;214520;1264;74815;-73
2023/01/29 07:26:49;;;;;;;9.50;7.10;;;;;;;-0.81;75.77;101208.56;214565;1265;71324;-73
2023/01/29 07:31:42;;;;;;;10.80;7.40;;;;;;;-0.74;75.91;101215.86;214579;1263;61279;-73
2023/01/29 07:36:36;;;;;;;7.50;5.10;;;;;;;-0.68;76.03;101221.34;214501;1266;61266;-74
2023/01/29 07:41:28;;;;;;;11.20;6.40;;;;;;;-0.64;75.59;101223.48;214499;1267;62408;-73
2023/01/29 07:46:24;;;;;;;8.00;5.70;;;;;;;-0.61;75.64;101240.25;214427;1266;74592;-73
2023/01/29 07:51:17;;;;;;;9.00;5.90;;;;;;;-0.58;75.53;101239.97;214482;1268;61248;-74
2023/01/29 07:56:10;;;;;;;9.60;5.90;;;;;;;-0.54;75.47;101242.61;214524;1264;61282;-73
2023/01/29 08:01:07;;;;;;;11.80;6.70;;;;;;;-0.50;75.67;101232.20;214531;1264;61339;-74
2023/01/29 08:06:00;;;;;;;7.80;6.10;;;;;;;-0.45;75.35;101217.39;214575;1264;61302;-73
2023/01/29 08:10:53;;;;;;;8.70;6.10;;;;;;;-0.34;75.31;101212.16;214521;1264;61806;-74
2023/01/29 08:15:46;;;;;;;7.60;6.20;;;;;;;-0.20;74.88;101214.98;214502;1264;61295;-74
2023/01/29 08:20:38;;;;;;;8.50;6.60;;;;;;;-0.13;74.59;101219.22;214337;1264;61652;-74
2023/01/29 08:25:32;;;;;;;8.00;4.90;;;;;;;-0.14;74.34;101214.05;214420;1267;61382;-74
2023/01/29 08:30:27;;;;;;;7.90;6.60;;;;;;;-0.17;74.12;101215.71;214352;1264;61281;-73
2023/01/29 08:35:20;;;;;;;10.90;6.10;;;;;;;-0.15;74.44;101210.89;214397;1264;75545;-74
2023/01/29 08:40:13;;;;;;;7.90;5.00;;;;;;;-0.09;74.29;101206.87;214401;1267;72634;-74
2023/01/29 08:45:08;;;;;;;8.60;6.50;;;;;;;-0.04;73.92;101204.83;214435;1264;61444;-74
2023/01/29 08:50:01;;;;;;;8.30;6.20;;;;;;;0.02;74.37;101202.31;214403;1264;66697;-74
2023/01/29 08:54:54;;;;;;;10.90;7.80;;;;;;;0.13;74.41;101203.25;214379;1267;61701;-74
2023/01/29 08:59:46;;;;;;;8.40;6.00;;;;;;;0.23;74.14;101199.94;214353;1265;61295;-74
2023/01/29 09:04:39;;;;;;;9.90;7.30;;;;;;;0.22;73.58;101198.34;214339;1264;61299;-74
2023/01/29 09:09:32;;;;;;;9.60;6.40;;;;;;;0.23;73.93;101190.05;214396;1266;61391;-74
2023/01/29 09:14:26;;;;;;;11.20;7.20;;;;;;;0.27;73.98;101182.63;214468;1264;61276;-74
2023/01/29 09:19:20;;;;;;;10.50;7.00;;;;;;;0.35;74.39;101172.80;214432;1267;61282;-73
2023/01/29 09:24:13;;;;;;;8.70;5.60;;;;;;;0.47;73.98;101153.39;214442;1267;75466;-74
2023/01/29 09:29:06;;;;;;;9.00;7.20;;;;;;;0.53;73.72;101143.42;214343;1264;61287;-74
2023/01/29 09:33:59;;;;;;;11.80;6.90;;;;;;;0.64;73.41;101143.05;214338;1264;61714;-74
2023/01/29 09:38:53;;;;;;;9.40;6.70;;;;;;;0.82;73.64;101144.55;214320;1266;68146;-74
2023/01/29 09:43:51;;;;;;;9.30;6.80;;;;;;;0.85;73.64;101145.92;214334;1264;61235;-74
2023/01/29 09:48:46;;;;;;;8.90;7.30;;;;;;;0.81;73.07;101137.80;214388;1267;73101;-73
2023/01/29 09:53:58;;;;;;;11.00;7.00;;;;;;;0.83;73.01;101135.06;214339;1264;72586;-74
2023/01/29 09:58:51;;;;;;;9.60;7.20;;;;;;;0.84;73.29;101130.65;214364;1264;61323;-74
2023/01/29 10:04:03;;;;;;;10.00;7.80;;;;;;;0.93;72.92;101118.08;214358;1264;66496;-74
2023/01/29 10:09:11;;;;;;;9.80;6.90;;;;;;;1.20;72.76;101106.45;214447;1264;61262;-74
2023/01/29 10:14:18;;;;;;;12.40;7.80;;;;;;;1.53;72.78;101101.09;214430;1264;74754;-74
2023/01/29 10:19:17;;;;;;;10.40;7.20;;;;;;;1.86;72.35;101091.54;214290;1264;71246;-74
2023/01/29 10:24:23;;;;;;;10.80;7.50;;;;;;;1.94;72.28;101085.36;214563;1264;61292;-75
2023/01/29 10:29:20;;;;;;;10.20;7.70;;;;;;;2.06;72.35;101081.39;214285;1264;66931;-74
2023/01/29 10:34:13;;;;;;;12.40;8.10;;;;;;;2.02;71.91;101077.60;214276;1264;61297;-74
2023/01/29 10:39:18;;;;;;;11.10;7.20;;;;;;;1.90;72.47;101080.67;214219;1264;61227;-74
2023/01/29 10:44:30;;;;;;;14.20;7.70;;;;;;;1.83;72.67;101078.77;214295;1267;70461;-74
2023/01/29 10:49:26;;;;;;;9.80;7.20;;;;;;;1.80;72.55;101074.95;214250;1267;61308;-74
2023/01/29 10:55:00;;;;;;;10.10;7.70;;;;;;;1.77;72.88;101073.27;214421;1265;69124;-74
2023/01/29 11:00:11;;;;;;;10.60;7.10;;;;;;;1.77;72.84;101064.89;214393;1264;61354;-74
2023/01/29 11:05:20;;;;;;;13.00;6.90;;;;;;;1.73;72.91;101061.76;214528;1263;74764;-74
2023/01/29 11:10:22;;;;;;;10.40;7.80;;;;;;;1.58;73.36;101059.13;214613;1262;71997;-74
2023/01/29 11:15:33;;;;;;;10.80;7.90;;;;;;;1.47;73.65;101052.21;214505;1263;61266;-74
2023/01/29 11:20:28;;;;;;;14.70;7.30;;;;;;;1.35;73.76;101039.02;214464;1266;67079;-74
2023/01/29 11:25:22;;;;;;;12.40;8.40;;;;;;;1.24;74.29;101039.20;214514;1263;61237;-74
2023/01/29 11:30:27;;;;;;;15.00;8.50;;;;;;;1.15;74.65;101037.33;214516;1263;75608;-74
2023/01/29 11:35:23;;;;;;;12.20;7.60;;;;;;;1.16;75.07;101030.89;214417;1264;72902;-74
2023/01/29 11:40:21;;;;;;;11.20;6.90;;;;;;;1.08;75.56;101020.03;214529;1264;61363;-74
2023/01/29 11:45:20;;;;;;;12.70;9.00;;;;;;;1.06;75.67;101003.50;214503;1263;65953;-74
2023/01/29 11:50:22;;;;;;;14.10;9.20;;;;;;;1.09;75.65;100990.69;214434;1264;61371;-74
2023/01/29 11:55:22;;;;;;;14.40;8.40;;;;;;;1.05;75.50;100977.14;214353;1263;73116;-73
2023/01/29 12:00:23;;;;;;;12.50;8.70;;;;;;;0.99;75.60;100971.81;214460;1264;71334;-74
2023/01/29 12:05:20;;;;;;;11.80;8.20;;;;;;;0.98;75.56;100969.20;214294;1267;61358;-75
2023/01/29 12:10:30;;;;;;;14.60;9.50;;;;;;;0.97;75.77;100965.07;214413;1264;66552;-74
2023/01/29 12:15:25;;;;;;;15.10;8.60;;;;;;;0.94;75.93;100962.67;214404;1264;61290;-74
2023/01/29 12:20:26;;;;;;;10.10;7.20;;;;;;;0.85;75.53;100957.67;214416;1264;74166;-74
2023/01/29 12:25:36;;;;;;;11.90;7.70;;;;;;;0.78;76.03;100946.14;214455;1264;71820;-74
2023/01/29 12:30:54;;;;;;;12.70;8.50;;;;;;;0.69;76.07;100935.60;214476;1264;61745;-75
2023/01/29 12:35:56;;;;;;;12.00;8.90;;;;;;;0.63;76.28;100933.15;214363;1264;65947;-74
2023/01/29 12:41:08;;;;;;;11.70;9.00;;;;;;;0.59;76.66;100932.09;214440;1265;61328;-75
2023/01/29 12:46:02;;;;;;;15.10;9.20;;;;;;;0.57;76.33;100931.60;214437;1264;75136;-74
2023/01/29 12:51:03;;;;;;;12.90;9.40;;;;;;;0.55;76.66;100920.75;214449;1264;72689;-74
2023/01/29 12:56:05;;;;;;;12.10;9.50;;;;;;;0.53;76.44;100910.37;214422;1264;61391;-74
2023/01/29 13:01:08;;;;;;;11.40;9.40;;;;;;;0.50;76.69;100898.60;214514;1263;65917;-74
2023/01/29 13:06:10;;;;;;;14.80;10.30;;;;;;;0.48;76.77;100890.98;214501;1263;61309;-74
2023/01/29 13:11:08;;;;;;;10.30;8.60;;;;;;;0.47;77.14;100891.79;214476;1264;74435;-74
2023/01/29 13:16:06;;;;;;;12.70;9.80;;;;;;;0.45;77.12;100898.27;214522;1262;72331;-74
2023/01/29 13:21:01;;;;;;;13.70;9.60;;;;;;;0.44;77.45;100911.02;214302;1263;61404;-74
2023/01/29 13:25:54;;;;;;;10.20;8.40;;;;;;;0.44;77.37;100916.14;214328;1264;65607;-74
2023/01/29 13:30:47;;;;;;;13.40;10.30;;;;;;;0.42;77.39;100919.09;214688;1264;61364;-74
2023/01/29 13:35:43;;;;;;;11.90;9.20;;;;;;;0.38;77.58;100907.81;214409;1265;74180;-74
2023/01/29 13:40:37;;;;;;;15.00;10.20;;;;;;;0.36;77.47;100906.16;214346;1264;73906;-74
2023/01/29 13:45:36;;;;;;;13.90;9.40;;;;;;;0.35;77.87;100908.64;214534;1263;61305;-74
2023/01/29 13:50:37;;;;;;;11.80;8.80;;;;;;;0.34;78.19;100901.57;214652;1263;65232;-74
2023/01/29 13:55:38;;;;;;;14.60;9.70;;;;;;;0.33;78.24;100885.84;214583;1264;61296;-75
2023/01/29 14:00:34;;;;;;;15.10;9.80;;;;;;;0.34;78.03;100872.23;214442;1263;74164;-74
2023/01/29 14:05:30;;;;;;;15.80;11.60;;;;;;;0.31;78.00;100878.01;214513;1264;72501;-74
2023/01/29 14:10:24;;;;;;;19.60;9.50;;;;;;;0.28;78.61;100877.52;214537;1267;61343;-74
2023/01/29 14:15:29;;;;;;;14.70;11.50;;;;;;;0.25;78.49;100878.02;214496;1264;65840;-74
2023/01/29 14:20:48;;;;;;;16.00;11.00;;;;;;;0.25;79.01;100897.79;214503;1263;61268;-75
2023/01/29 14:25:41;;;;;;;13.90;9.40;;;;;;;0.23;79.30;100911.30;214503;1263;75667;-75
2023/01/29 14:30:35;;;;;;;15.50;9.60;;;;;;;0.20;79.44;100921.33;214519;1263;72314;-75
2023/01/29 14:35:32;;;;;;;15.70;10.80;;;;;;;0.14;79.77;100918.40;214547;1263;61248;-75
2023/01/29 14:40:28;;;;;;;12.60;10.30;;;;;;;0.11;79.88;100922.14;214579;1264;66883;-75
2023/01/29 14:45:27;;;;;;;16.20;11.50;;;;;;;0.08;80.22;100914.65;214490;1264;61353;-75
2023/01/29 14:50:30;;;;;;;16.20;11.00;;;;;;;0.04;80.48;100897.30;214573;1264;74370;-75
2023/01/29 14:55:27;;;;;;;14.60;10.80;;;;;;;-0.01;80.48;100881.52;214565;1265;73742;-75
2023/01/29 15:00:42;;;;;;;17.20;12.40;;;;;;;-0.04;80.75;100878.32;214565;1265;61303;-74
2023/01/29 15:05:37;;;;;;;13.70;10.10;;;;;;;-0.04;81.02;100873.02;214498;1264;66494;-74
2023/01/29 15:10:42;;;;;;;14.90;10.30;;;;;;;-0.06;81.09;100873.94;214467;1263;61262;-74
2023/01/29 15:15:43;;;;;;;18.40;13.70;;;;;;;-0.07;81.03;100882.67;214597;1264;74489;-75
2023/01/29 15:20:39;;;;;;;17.80;12.40;;;;;;;-0.10;81.34;100881.64;214430;1264;73769;-75
2023/01/29 15:25:46;;;;;;;16.00;12.20;;;;;;;-0.12;81.68;100873.86;214542;1264;61338;-75
2023/01/29 15:30:41;;;;;;;19.20;13.10;;;;;;;-0.11;81.86;100883.13;214471;1264;66867;-75
2023/01/29 15:35:40;;;;;;;14.90;11.30;;;;;;;-0.12;82.88;100875.59;214528;1264;61360;-75
2023/01/29 15:40:35;;;;;;;22.50;13.40;;;;;;;-0.12;83.54;100872.01;214537;1264;75479;-74
2023/01/29 15:45:33;;;;;;;18.90;13.00;;;;;;;-0.13;83.15;100852.48;214532;1264;72966;-75
2023/01/29 15:50:26;;;;;;;14.80;10.90;;;;;;;-0.12;83.04;100848.83;214543;1264;61263;-75
2023/01/29 15:55:23;;;;;;;17.60;12.70;;;;;;;-0.12;83.02;100845.23;214548;1263;62816;-74
2023/01/29 16:00:28;;;;;;;18.30;12.50;;;;;;;-0.13;82.79;100851.33;214448;1264;61417;-75
2023/01/29 16:05:31;;;;;;;17.10;11.50;;;;;;;-0.14;82.95;100842.23;214536;1264;75802;-75
2023/01/29 16:10:31;;;;;;;16.80;12.20;;;;;;;-0.15;83.09;100838.42;214545;1264;73389;-75
2023/01/29 16:15:33;;;;;;;14.10;10.30;;;;;;;-0.17;83.19;100844.23;214500;1264;61478;-75
2023/01/29 16:20:35;;;;;;;13.70;9.80;;;;;;;-0.19;83.38;100844.45;214309;1262;66261;-75
2023/01/29 16:25:30;;;;;;;16.60;12.10;;;;;;;-0.20;83.45;100841.38;214576;1263;61273;-75
2023/01/29 16:30:26;;;;;;;17.40;12.30;;;;;;;-0.19;83.53;100847.02;214425;1264;74300;-75
2023/01/29 16:35:19;;;;;;;18.50;14.30;;;;;;;-0.16;83.54;100841.57;214482;1264;72322;-75
2023/01/29 16:40:24;;;;;;;20.40;13.90;;;;;;;-0.15;83.80;100845.41;214562;1264;61289;-73
2023/01/29 16:45:29;;;;;;;21.70;13.70;;;;;;;-0.16;83.68;100848.94;214646;1264;66845;-74
2023/01/29 16:50:34;;;;;;;20.10;14.10;;;;;;;-0.16;83.74;100846.00;214505;1265;61277;-75
2023/01/29 16:55:48;;;;;;;24.40;15.20;;;;;;;-0.15;83.88;100847.80;214407;1264;74732;-75
2023/01/29 17:01:09;;;;;;;21.60;15.80;;;;;;;-0.13;84.08;100863.05;214534;1264;71383;-74
2023/01/29 17:06:12;;;;;;;18.80;10.40;;;;;;;-0.12;83.81;100858.02;214376;1265;61342;-74
2023/01/29 17:11:06;;;;;;;22.10;15.50;;;;;;;-0.11;84.17;100849.20;214478;1264;67427;-75
2023/01/29 17:16:02;;;;;;;20.20;14.70;;;;;;;-0.12;84.54;100843.73;214574;1263;61270;-75
2023/01/29 17:20:55;;;;;;;27.40;16.50;;;;;;;-0.13;84.66;100834.23;214573;1267;75618;-74
2023/01/29 17:25:49;;;;;;;24.00;16.20;;;;;;;-0.14;84.69;100822.94;214502;1263;61249;-75
2023/01/29 17:30:42;;;;;;;21.50;16.20;;;;;;;-0.15;84.86;100808.60;214521;1264;61258;-75
2023/01/29 17:35:44;;;;;;;24.60;15.60;;;;;;;-0.15;84.85;100805.52;214511;1264;67645;-75
2023/01/29 17:40:49;;;;;;;22.70;14.40;;;;;;;-0.14;85.31;100795.69;214550;1264;61290;-75
2023/01/29 17:45:42;;;;;;;26.80;17.50;;;;;;;-0.15;85.24;100789.99;214532;1263;79389;-75
2023/01/29 17:50:39;;;;;;;26.30;19.50;;;;;;;-0.18;85.48;100778.58;214479;1263;71929;-74
2023/01/29 17:55:32;;;;;;;23.10;17.50;;;;;;;-0.18;85.38;100773.48;214583;1264;61254;-74
2023/01/29 18:00:25;;;;;;;24.50;17.00;;;;;;;-0.15;85.71;100758.98;214496;1264;61277;-75
2023/01/29 18:05:18;;;;;;;27.20;18.10;;;;;;;-0.14;85.74;100746.43;214458;1263;61646;-75
2023/01/29 18:10:20;;;;;;;26.70;19.40;;;;;;;-0.13;85.75;100736.49;214500;1264;75609;-75
2023/01/29 18:15:14;;;;;;;27.50;18.40;;;;;;;-0.12;85.75;100733.79;214513;1264;72483;-75
2023/01/29 18:20:17;;;;;;;30.30;18.30;;;;;;;-0.14;85.55;100721.92;214544;1264;61444;-74
2023/01/29 18:25:10;;;;;;;26.20;17.90;;;;;;;-0.16;85.44;100707.65;214525;1262;67872;-75
2023/01/29 18:30:04;;;;;;;28.90;19.60;;;;;;;-0.16;85.80;100698.98;214563;1264;61281;-74
2023/01/29 18:34:57;;;;;;;24.70;17.80;;;;;;;-0.14;85.79;100699.23;214580;1264;73413;-75
2023/01/29 18:39:51;;;;;;;29.20;19.50;;;;;;;-0.15;85.75;100694.29;214567;1267;61295;-75
2023/01/29 18:44:44;;;;;;;30.70;18.40;;;;;;;-0.15;85.67;100687.95;214568;1264;61257;-74
2023/01/29 18:49:38;;;;;;;31.30;20.30;;;;;;;-0.15;85.88;100693.89;214527;1267;61276;-75
2023/01/29 18:54:30;;;;;;;27.50;19.60;;;;;;;-0.15;85.82;100695.45;214522;1264;61791;-75
2023/01/29 18:59:23;;;;;;;32.60;21.30;;;;;;;-0.15;85.82;100693.42;214442;1265;61232;-75
2023/01/29 19:04:16;;;;;;;33.20;21.50;;;;;;;-0.15;86.05;100688.80;214516;1267;61366;-75
2023/01/29 19:09:10;;;;;;;32.50;21.40;;;;;;;-0.14;85.98;100687.32;214492;1264;61374;-75
2023/01/29 19:14:03;;;;;;;28.40;19.20;;;;;;;-0.15;86.05;100679.11;214585;1264;67205;-75
2023/01/29 19:18:57;;;;;;;30.00;21.10;;;;;;;-0.16;86.04;100678.36;214612;1262;61949;-75
2023/01/29 19:23:50;;;;;;;31.10;21.00;;;;;;;-0.13;86.45;100671.35;214592;1267;74334;-75
2023/01/29 19:28:43;;;;;;;25.80;18.70;;;;;;;-0.11;86.34;100671.80;214618;1263;63100;-75
2023/01/29 19:33:37;;;;;;;26.70;18.40;;;;;;;-0.11;86.49;100675.61;214564;1262;61264;-75
2023/01/29 19:38:36;;;;;;;31.90;21.90;;;;;;;-0.11;86.35;100666.91;214528;1264;65825;-75
2023/01/29 19:43:30;;;;;;;27.50;18.80;;;;;;;-0.10;86.21;100652.63;214553;1264;61283;-74
2023/01/29 19:48:25;;;;;;;29.60;21.30;;;;;;;-0.09;86.36;100649.13;214514;1265;75398;-75
2023/01/29 19:53:18;;;;;;;33.40;20.50;;;;;;;-0.10;86.16;100646.70;214502;1265;72392;-75
2023/01/29 19:58:11;;;;;;;27.80;19.20;;;;;;;-0.10;86.41;100638.31;214574;1264;61353;-75
2023/01/29 20:03:04;;;;;;;34.50;20.60;;;;;;;-0.10;86.30;100630.52;214483;1265;67707;-74
2023/01/29 20:07:56;;;;;;;28.40;18.30;;;;;;;-0.10;86.50;100626.88;214627;1262;61358;-74
2023/01/29 20:12:49;;;;;;;24.80;16.30;;;;;;;-0.11;86.47;100619.88;214536;1264;61366;-74
2023/01/29 20:17:44;;;;;;;30.40;20.30;;;;;;;-0.11;86.48;100611.69;214484;1264;61961;-74
2023/01/29 20:22:37;;;;;;;30.20;19.30;;;;;;;-0.10;86.61;100604.95;214555;1265;61254;-75
2023/01/29 20:27:29;;;;;;;29.20;20.10;;;;;;;-0.10;86.58;100599.30;214543;1262;61820;-75
2023/01/29 20:32:22;;;;;;;28.90;18.40;;;;;;;-0.10;86.49;100597.63;214573;1266;61366;-75
2023/01/29 20:37:15;;;;;;;34.00;20.80;;;;;;;-0.08;86.54;100598.90;214611;1264;61298;-74
2023/01/29 20:42:08;;;;;;;35.70;21.30;;;;;;;-0.10;86.49;100586.20;214544;1267;61264;-75
2023/01/29 20:47:01;;;;;;;33.70;20.00;;;;;;;-0.10;86.69;100581.58;214533;1265;61309;-74
2023/01/29 20:51:54;;;;;;;40.20;24.50;;;;;;;-0.08;86.48;100568.72;214559;1264;61337;-75
2023/01/29 20:56:47;;;;;;;31.20;19.40;;;;;;;-0.06;86.37;100558.80;214433;1265;61284;-74
2023/01/29 21:01:41;;;;;;;30.40;19.00;;;;;;;-0.06;86.52;100555.74;214588;1265;75800;-74
2023/01/29 21:06:34;;;;;;;34.50;21.40;;;;;;;-0.05;86.62;100548.34;214459;1265;73426;-75
2023/01/29 21:11:27;;;;;;;31.30;20.20;;;;;;;-0.04;86.46;100543.11;214579;1264;61238;-74
2023/01/29 21:16:20;;;;;;;28.70;18.80;;;;;;;-0.03;86.54;100540.77;214546;1264;66993;-74
2023/01/29 21:21:13;;;;;;;35.70;20.10;;;;;;;-0.03;86.50;100534.13;214492;1262;61283;-74
2023/01/29 21:26:07;;;;;;;33.00;19.60;;;;;;;-0.03;86.53;100533.24;214560;1265;61305;-74
2023/01/29 21:31:10;;;;;;;32.60;19.90;;;;;;;-0.03;86.41;100533.73;214538;1265;71501;-74
2023/01/29 21:36:04;;;;;;;31.70;19.80;;;;;;;-0.04;86.46;100529.42;214533;1265;61818;-74
2023/01/29 21:41:05;;;;;;;32.00;20.30;;;;;;;-0.04;86.48;100521.30;214527;1262;68154;-74
2023/01/29 21:46:02;;;;;;;32.20;19.90;;;;;;;-0.02;86.86;100517.48;214466;1265;61241;-74
2023/01/29 21:50:56;;;;;;;33.60;20.80;;;;;;;-0.01;86.81;100519.75;214521;1263;74713;-74
2023/01/29 21:55:49;;;;;;;32.10;19.60;;;;;;;0.01;86.80;100511.82;214499;1267;73446;-74
2023/01/29 22:00:41;;;;;;;29.30;19.40;;;;;;;0.01;86.77;100508.41;214627;1263;61345;-74
2023/01/29 22:05:34;;;;;;;33.20;20.30;;;;;;;0.01;87.10;100497.16;214465;1268;61263;-74
2023/01/29 22:10:27;;;;;;;32.90;20.30;;;;;;;-0.01;87.08;100488.55;214437;1262;61242;-75
2023/01/29 22:15:21;;;;;;;29.80;18.50;;;;;;;-0.04;87.13;100478.18;214388;1264;75709;-74
2023/01/29 22:20:16;;;;;;;29.20;20.00;;;;;;;-0.05;87.15;100471.65;215391;1266;72597;-74
2023/01/29 22:25:09;;;;;;;30.70;19.60;;;;;;;-0.05;87.36;100459.39;214564;1265;61341;-74
2023/01/29 22:30:04;;;;;;;31.80;20.00;;;;;;;-0.03;87.49;100440.23;214568;1265;66770;-74
2023/01/29 22:34:57;;;;;;;27.00;18.60;;;;;;;-0.02;87.42;100426.83;214597;1266;61366;-74
2023/01/29 22:39:50;;;;;;;25.30;17.30;;;;;;;-0.01;87.41;100421.44;214516;1265;73375;-74
2023/01/29 22:44:44;;;;;;;30.60;20.50;;;;;;;0.00;87.49;100410.55;214492;1264;70382;-74
2023/01/29 22:49:41;;;;;;;30.20;19.80;;;;;;;-0.01;87.61;100398.06;214584;1266;61304;-74
2023/01/29 22:54:33;;;;;;;27.90;17.90;;;;;;;0.00;87.67;100383.64;214395;1265;61287;-73
2023/01/29 22:59:27;;;;;;;28.90;19.80;;;;;;;0.02;87.71;100377.56;214339;1267;61303;-74
2023/01/29 23:04:21;;;;;;;29.80;19.00;;;;;;;0.02;87.67;100369.22;214427;1264;75676;-73